Plaistow, New Hampshire
Current Conditions -  °F | °C
As of 1:54 AM on Saturday 25 Oct 2014 (Local Time) from KLWM Reporting Station
Overcast Overcast  
Wind Chill: 47°   Ceiling: 6000
Heat Index: 47°   Visibility: 10mi
Dew Point: 42°   Wind: 0mph
Humidity: 83%   Direction: NA
Pressure: 29.76"   Gusts: NA
Location:  42.84°N, 71.09°W
Report Text: KLWM 250554Z 00000KT 10SM OVC060 08/06 A2976 RMK AO2 SLP078 T00830056 10094 20072 50002
Loading
Personal Weather Stations






























Interactive Weather Map
Tropical Storm Tracking
New forecast layout! Learn more

10-Day Weather Forecast

Advertisements
Track Severe Weather on mobile